createdAt,value
2016-12-17T00:00:18.391Z,0
2016-12-17T00:01:53.194Z,0
2016-12-17T00:03:27.559Z,0
2016-12-17T00:04:57.610Z,0
2016-12-17T00:06:31.700Z,0
2016-12-17T00:08:33.422Z,0
2016-12-17T00:10:07.150Z,0
2016-12-17T00:11:42.580Z,0
2016-12-17T00:13:16.476Z,0
2016-12-17T00:14:49.958Z,0
2016-12-17T00:16:23.827Z,0
2016-12-17T00:17:57.679Z,0
2016-12-17T00:19:31.406Z,0
2016-12-17T00:21:32.609Z,0
2016-12-17T00:23:07.121Z,0
2016-12-17T00:24:42.120Z,0
2016-12-17T00:26:16.050Z,0
2016-12-17T00:27:50.145Z,0
2016-12-17T00:29:24.054Z,0
2016-12-17T00:31:16.751Z,0
2016-12-17T00:32:50.538Z,0
2016-12-17T00:34:25.328Z,0
2016-12-17T00:35:59.323Z,0
2016-12-17T00:37:33.735Z,0
2016-12-17T00:39:07.803Z,0
2016-12-17T00:40:37.659Z,0
2016-12-17T00:42:43.236Z,0
2016-12-17T00:44:16.865Z,0
2016-12-17T00:45:51.211Z,0
2016-12-17T00:47:24.934Z,0
2016-12-17T00:48:53.291Z,0
2016-12-17T00:50:27.250Z,0
2016-12-17T00:52:02.238Z,0
2016-12-17T00:53:35.873Z,0
2016-12-17T00:55:09.342Z,0
2016-12-17T00:56:43.229Z,0
2016-12-17T00:58:18.160Z,0
2016-12-17T00:59:51.746Z,0
2016-12-17T01:01:25.480Z,0
2016-12-17T01:02:58.765Z,0
2016-12-17T01:04:32.348Z,0
2016-12-17T01:06:05.946Z,0
2016-12-17T01:07:58.803Z,0
2016-12-17T01:09:32.175Z,0
2016-12-17T01:11:05.951Z,0
2016-12-17T01:12:40.504Z,0
2016-12-17T01:14:09.362Z,0
2016-12-17T01:15:43.198Z,0
2016-12-17T01:17:17.253Z,0
2016-12-17T01:18:50.886Z,0
2016-12-17T01:20:24.798Z,0
2016-12-17T01:21:58.215Z,0
2016-12-17T01:23:31.876Z,0
2016-12-17T01:25:05.634Z,0
2016-12-17T01:26:38.943Z,0
2016-12-17T01:28:12.284Z,0
2016-12-17T01:30:44.781Z,0
2016-12-17T01:32:18.312Z,0
2016-12-17T01:33:51.806Z,0
2016-12-17T01:35:25.667Z,0
2016-12-17T01:36:59.497Z,0
2016-12-17T01:38:33.331Z,0
2016-12-17T01:40:06.764Z,0
2016-12-17T01:41:40.355Z,0
2016-12-17T01:43:14.170Z,0
2016-12-17T01:44:48.222Z,0
2016-12-17T01:46:21.805Z,0
2016-12-17T01:47:55.219Z,0
2016-12-17T01:49:30.644Z,0
2016-12-17T01:51:23.217Z,0
2016-12-17T01:52:57.302Z,0
2016-12-17T01:54:32.232Z,0
2016-12-17T01:56:06.034Z,0
2016-12-17T01:57:39.515Z,0
2016-12-17T01:59:13.252Z,0
2016-12-17T02:00:46.676Z,0
2016-12-17T02:02:21.752Z,0
2016-12-17T02:03:55.475Z,0
2016-12-17T02:05:29.387Z,0
2016-12-17T02:07:03.087Z,0
2016-12-17T02:08:37.396Z,0
2016-12-17T02:10:29.944Z,0
2016-12-17T02:12:03.551Z,0
2016-12-17T02:13:36.893Z,0
2016-12-17T02:15:10.556Z,0
2016-12-17T02:16:44.352Z,0
2016-12-17T02:18:18.120Z,0
2016-12-17T02:19:52.092Z,0
2016-12-17T02:21:28.114Z,0
2016-12-17T02:23:01.946Z,0
2016-12-17T02:24:35.239Z,0
2016-12-17T02:26:09.314Z,0
2016-12-17T02:27:43.121Z,0
2016-12-17T02:29:16.872Z,0
2016-12-17T02:31:09.351Z,0
2016-12-17T02:32:42.700Z,0
2016-12-17T02:34:16.207Z,0
2016-12-17T02:35:50.511Z,0
2016-12-17T02:37:23.925Z,0
2016-12-17T02:38:57.596Z,0
2016-12-17T02:40:31.103Z,0
2016-12-17T02:42:05.123Z,0
2016-12-17T02:43:38.702Z,0
2016-12-17T02:45:12.068Z,0
2016-12-17T02:46:45.699Z,0
2016-12-17T02:48:19.304Z,0
2016-12-17T02:49:52.960Z,0
2016-12-17T02:51:26.263Z,0
2016-12-17T02:53:00.078Z,0
2016-12-17T02:54:34.155Z,0
2016-12-17T02:56:07.421Z,0
2016-12-17T02:57:41.039Z,0
2016-12-17T02:59:34.580Z,0
2016-12-17T03:01:08.643Z,0
2016-12-17T03:02:42.352Z,0
2016-12-17T03:04:16.504Z,0
2016-12-17T03:05:50.063Z,0
2016-12-17T03:07:23.900Z,0
2016-12-17T03:08:57.694Z,0
2016-12-17T03:10:31.374Z,0
2016-12-17T03:12:05.259Z,0
2016-12-17T03:13:38.611Z,0
2016-12-17T03:15:12.225Z,0
2016-12-17T03:16:45.842Z,0
2016-12-17T03:18:19.358Z,0
2016-12-17T03:19:55.777Z,0
2016-12-17T03:21:29.259Z,0
2016-12-17T03:23:03.797Z,0
2016-12-17T03:24:37.383Z,0
2016-12-17T03:26:29.873Z,0
2016-12-17T03:28:03.267Z,0
2016-12-17T03:29:37.143Z,0
2016-12-17T03:31:11.255Z,0
2016-12-17T03:32:44.816Z,0
2016-12-17T03:34:18.154Z,0
2016-12-17T03:35:51.908Z,0
2016-12-17T03:37:25.471Z,0
2016-12-17T03:38:59.098Z,0
2016-12-17T03:40:32.429Z,0
2016-12-17T03:42:00.987Z,0
2016-12-17T03:43:34.545Z,0
2016-12-17T03:45:08.256Z,0
2016-12-17T03:46:37.165Z,0
2016-12-17T03:47:51.732Z,0
2016-12-17T03:49:44.759Z,0
2016-12-17T03:51:18.322Z,0
2016-12-17T03:52:52.045Z,0
2016-12-17T03:54:26.000Z,0
2016-12-17T03:55:59.753Z,0
2016-12-17T03:57:28.495Z,0
2016-12-17T03:59:04.479Z,0
2016-12-17T04:00:39.117Z,0
2016-12-17T04:02:12.729Z,0
2016-12-17T04:03:46.080Z,0
2016-12-17T04:05:19.695Z,0
2016-12-17T04:06:54.104Z,0
2016-12-17T04:08:27.409Z,0
2016-12-17T04:10:01.049Z,0
2016-12-17T04:11:34.421Z,0
2016-12-17T04:13:09.084Z,0
2016-12-17T04:14:42.342Z,0
2016-12-17T04:16:16.032Z,0
2016-12-17T04:18:08.551Z,0
2016-12-17T04:19:42.919Z,0
2016-12-17T04:21:17.086Z,0
2016-12-17T04:22:50.395Z,0
2016-12-17T04:24:23.711Z,0
2016-12-17T04:25:57.710Z,0
2016-12-17T04:27:31.616Z,0
2016-12-17T04:29:05.246Z,0
2016-12-17T04:30:38.536Z,0
2016-12-17T04:32:12.103Z,0
2016-12-17T04:33:45.644Z,0
2016-12-17T04:35:19.420Z,0
2016-12-17T04:36:52.936Z,0
2016-12-17T04:38:26.433Z,0
2016-12-17T04:39:59.758Z,0
2016-12-17T04:41:33.617Z,0
2016-12-17T04:43:07.365Z,0
2016-12-17T04:44:40.890Z,0
2016-12-17T04:46:14.587Z,0
2016-12-17T04:47:48.180Z,0
2016-12-17T04:49:41.612Z,0
2016-12-17T04:51:15.640Z,0
2016-12-17T04:52:49.575Z,0
2016-12-17T04:54:22.824Z,0
2016-12-17T04:55:56.136Z,0
2016-12-17T04:57:30.284Z,0
2016-12-17T04:59:03.567Z,0
2016-12-17T05:00:36.893Z,0
2016-12-17T05:01:50.986Z,0
2016-12-17T05:03:24.849Z,0
2016-12-17T05:04:58.708Z,0
2016-12-17T05:06:51.139Z,0
2016-12-17T05:08:25.435Z,0
2016-12-17T05:09:59.044Z,0
2016-12-17T05:11:32.724Z,0
2016-12-17T05:13:05.981Z,0
2016-12-17T05:14:39.844Z,0
2016-12-17T05:16:14.043Z,0
2016-12-17T05:17:47.744Z,0
2016-12-17T05:19:21.131Z,0
2016-12-17T05:20:54.500Z,0
2016-12-17T05:22:28.280Z,0
2016-12-17T05:24:01.957Z,0
2016-12-17T05:25:35.697Z,0
2016-12-17T05:27:09.729Z,0
2016-12-17T05:28:43.468Z,0
2016-12-17T05:30:17.052Z,0
2016-12-17T05:32:10.020Z,0
2016-12-17T05:33:43.320Z,0
2016-12-17T05:35:18.050Z,0
2016-12-17T05:36:53.869Z,0
2016-12-17T05:38:27.643Z,0
2016-12-17T05:40:01.318Z,0
2016-12-17T05:41:34.887Z,0
2016-12-17T05:43:08.393Z,0
2016-12-17T05:44:38.948Z,0
2016-12-17T05:46:12.195Z,0
2016-12-17T05:47:46.266Z,0
2016-12-17T05:49:20.121Z,0
2016-12-17T05:50:53.878Z,0
2016-12-17T05:52:27.439Z,0
2016-12-17T05:54:29.244Z,0
2016-12-17T05:56:02.781Z,0
2016-12-17T05:57:37.334Z,0
2016-12-17T05:59:10.873Z,0
2016-12-17T06:00:44.510Z,0
2016-12-17T06:02:17.807Z,0
2016-12-17T06:04:10.577Z,0
2016-12-17T06:05:44.486Z,0
2016-12-17T06:07:18.126Z,0
2016-12-17T06:08:51.432Z,0
2016-12-17T06:10:25.029Z,0
2016-12-17T06:11:59.157Z,0
2016-12-17T06:13:32.907Z,0
2016-12-17T06:15:06.692Z,0
2016-12-17T06:16:40.154Z,0
2016-12-17T06:18:13.394Z,0
2016-12-17T06:19:47.701Z,0
2016-12-17T06:21:21.558Z,0
2016-12-17T06:22:49.733Z,0
2016-12-17T06:24:23.047Z,0
2016-12-17T06:25:56.710Z,0
2016-12-17T06:27:30.243Z,0
2016-12-17T06:29:03.663Z,0
2016-12-17T06:30:36.941Z,0
2016-12-17T06:32:11.347Z,0
2016-12-17T06:33:44.847Z,0
2016-12-17T06:35:18.166Z,0
2016-12-17T06:36:51.896Z,0
2016-12-17T06:38:25.475Z,0
2016-12-17T06:39:59.226Z,0
2016-12-17T06:41:32.931Z,0
2016-12-17T06:43:25.621Z,0
2016-12-17T06:44:59.554Z,0
2016-12-17T06:46:33.160Z,0
2016-12-17T06:48:06.964Z,0
2016-12-17T06:49:40.934Z,0
2016-12-17T06:51:09.846Z,0
2016-12-17T06:52:43.644Z,0
2016-12-17T06:54:16.918Z,0
2016-12-17T06:55:50.275Z,0
2016-12-17T06:57:23.897Z,0
2016-12-17T06:58:58.074Z,0
2016-12-17T07:00:31.582Z,0
2016-12-17T07:02:04.888Z,0
2016-12-17T07:03:38.393Z,0
2016-12-17T07:05:12.024Z,0
2016-12-17T07:06:45.610Z,0
2016-12-17T07:08:19.176Z,0
2016-12-17T07:09:53.932Z,0
2016-12-17T07:11:27.509Z,0
2016-12-17T07:13:00.763Z,0
2016-12-17T07:15:28.037Z,0
2016-12-17T07:17:02.356Z,0
2016-12-17T07:18:35.932Z,0
2016-12-17T07:20:09.238Z,0
2016-12-17T07:21:43.525Z,0
2016-12-17T07:23:17.267Z,0
2016-12-17T07:24:51.192Z,0
2016-12-17T07:26:24.734Z,0
2016-12-17T07:27:58.578Z,0
2016-12-17T07:29:31.866Z,0
2016-12-17T07:31:29.465Z,0
2016-12-17T07:33:01.248Z,5
2016-12-17T07:34:40.639Z,5
2016-12-17T07:36:15.727Z,5
2016-12-17T07:37:49.051Z,5
2016-12-17T07:39:24.336Z,5
2016-12-17T07:40:59.151Z,5
2016-12-17T07:42:32.525Z,5
2016-12-17T07:44:06.548Z,5
2016-12-17T07:45:58.973Z,5
2016-12-17T07:47:33.572Z,5
2016-12-17T07:49:10.991Z,5
2016-12-17T07:50:46.127Z,5
2016-12-17T07:52:21.622Z,10
2016-12-17T07:54:16.263Z,10
2016-12-17T07:55:58.036Z,10
2016-12-17T07:57:31.556Z,10
2016-12-17T07:59:05.269Z,10
2016-12-17T08:00:35.192Z,10
2016-12-17T08:02:08.815Z,10
2016-12-17T08:03:43.299Z,10
2016-12-17T08:05:36.913Z,10
2016-12-17T08:07:10.577Z,10
2016-12-17T08:08:43.938Z,10
2016-12-17T08:10:17.473Z,15
2016-12-17T08:11:52.282Z,15
2016-12-17T08:13:26.021Z,15
2016-12-17T08:14:59.353Z,15
2016-12-17T08:16:32.851Z,20
2016-12-17T08:18:06.409Z,20
2016-12-17T08:19:39.995Z,20
2016-12-17T08:21:13.630Z,20
2016-12-17T08:22:47.391Z,20
2016-12-17T08:24:15.826Z,20
2016-12-17T08:25:44.148Z,20
2016-12-17T08:26:58.486Z,25
2016-12-17T08:28:51.535Z,25
2016-12-17T08:30:25.131Z,25
2016-12-17T08:31:58.627Z,25
2016-12-17T08:33:32.319Z,25
2016-12-17T08:35:06.496Z,25
2016-12-17T08:36:39.995Z,30
2016-12-17T08:38:13.678Z,30
2016-12-17T08:39:46.931Z,35
2016-12-17T08:41:20.815Z,40
2016-12-17T08:42:54.080Z,40
2016-12-17T08:44:27.948Z,40
2016-12-17T08:46:01.549Z,40
2016-12-17T08:47:35.028Z,35
2016-12-17T08:49:08.271Z,30
2016-12-17T08:50:43.196Z,30
2016-12-17T08:52:16.801Z,35
2016-12-17T08:53:47.898Z,35
2016-12-17T08:55:21.205Z,35
2016-12-17T08:57:22.697Z,35
2016-12-17T08:58:56.426Z,35
2016-12-17T09:00:30.137Z,35
2016-12-17T09:02:03.687Z,35
2016-12-17T09:03:37.623Z,30
2016-12-17T09:05:10.886Z,30
2016-12-17T09:07:03.967Z,35
2016-12-17T09:08:37.888Z,35
2016-12-17T09:10:12.426Z,35
2016-12-17T09:11:45.962Z,35
2016-12-17T09:13:15.272Z,35
2016-12-17T09:14:48.598Z,35
2016-12-17T09:16:22.494Z,35
2016-12-17T09:17:56.014Z,40
2016-12-17T09:19:30.712Z,40
2016-12-17T09:21:04.370Z,40
2016-12-17T09:22:38.895Z,40
2016-12-17T09:24:12.345Z,40
2016-12-17T09:25:46.250Z,40
2016-12-17T09:27:20.170Z,35
2016-12-17T09:28:53.806Z,35
2016-12-17T09:30:27.611Z,35
2016-12-17T09:32:02.470Z,35
2016-12-17T09:33:55.737Z,40
2016-12-17T09:35:30.087Z,40
2016-12-17T09:37:03.987Z,40
2016-12-17T09:38:37.798Z,40
2016-12-17T09:47:06.647Z,45
2016-12-17T09:48:22.318Z,45
2016-12-17T09:49:36.584Z,45
2016-12-17T09:50:52.255Z,45
2016-12-17T09:52:07.513Z,45
2016-12-17T09:53:24.515Z,45
2016-12-17T09:54:40.282Z,45
2016-12-17T09:55:55.341Z,45
2016-12-17T09:57:10.265Z,45
2016-12-17T09:58:24.688Z,45
2016-12-17T09:59:39.284Z,45
2016-12-17T10:00:55.587Z,45
2016-12-17T10:02:10.054Z,50
2016-12-17T10:03:24.935Z,50
2016-12-17T10:04:39.723Z,50
2016-12-17T10:05:55.290Z,50
2016-12-17T10:07:10.221Z,50
2016-12-17T10:08:24.459Z,50
2016-12-17T10:09:38.755Z,50
2016-12-17T10:10:53.201Z,50
2016-12-17T10:12:07.807Z,50
2016-12-17T10:13:22.057Z,45
2016-12-17T10:14:37.062Z,45
2016-12-17T10:15:51.188Z,45
2016-12-17T10:17:05.896Z,45
2016-12-17T10:18:20.565Z,45
2016-12-17T10:19:36.116Z,45
2016-12-17T10:20:50.831Z,45
2016-12-17T10:22:05.216Z,40
2016-12-17T10:23:19.477Z,40
2016-12-17T10:24:34.435Z,40
2016-12-17T10:25:51.621Z,40
2016-12-17T10:27:09.245Z,40
2016-12-17T10:28:23.601Z,40
2016-12-17T10:29:38.179Z,40
2016-12-17T10:30:53.122Z,40
2016-12-17T10:32:08.511Z,40
2016-12-17T10:33:24.918Z,40
2016-12-17T10:34:39.907Z,40
2016-12-17T10:35:54.255Z,40
2016-12-17T10:37:09.275Z,40
2016-12-17T10:38:23.922Z,45
2016-12-17T10:39:38.317Z,45
2016-12-17T10:40:52.631Z,45
2016-12-17T10:42:07.270Z,40
2016-12-17T10:43:22.618Z,40
2016-12-17T10:44:38.485Z,40
2016-12-17T10:45:53.101Z,40
2016-12-17T10:47:08.292Z,40
2016-12-17T10:48:22.718Z,40
2016-12-17T10:49:37.620Z,40
2016-12-17T10:50:53.340Z,45
2016-12-17T10:52:08.879Z,45
2016-12-17T10:53:23.371Z,45
2016-12-17T10:54:39.346Z,45
2016-12-17T10:55:54.358Z,45
2016-12-17T10:57:09.682Z,45
2016-12-17T10:58:24.856Z,45
2016-12-17T10:59:39.680Z,50
2016-12-17T11:00:55.430Z,50
2016-12-17T11:02:10.116Z,55
2016-12-17T11:03:24.817Z,55
2016-12-17T11:04:39.195Z,55
2016-12-17T11:05:53.886Z,60
2016-12-17T11:07:08.498Z,65
2016-12-17T11:08:23.377Z,70
2016-12-17T11:09:38.162Z,75
2016-12-17T11:10:52.610Z,80
2016-12-17T11:12:07.161Z,80
2016-12-17T11:13:21.295Z,80
2016-12-17T11:14:35.768Z,80
2016-12-17T11:15:50.299Z,75
2016-12-17T11:17:04.891Z,75
2016-12-17T11:18:19.084Z,75
2016-12-17T11:19:33.803Z,75
2016-12-17T11:21:03.274Z,80
2016-12-17T11:22:17.346Z,80
2016-12-17T11:23:31.454Z,80
2016-12-17T11:24:45.591Z,85
2016-12-17T11:26:00.013Z,85
2016-12-17T11:27:14.763Z,85
2016-12-17T11:28:28.811Z,85
2016-12-17T11:29:43.564Z,85
2016-12-17T11:30:57.655Z,90
2016-12-17T11:32:12.298Z,85
2016-12-17T11:33:26.693Z,85
2016-12-17T11:34:40.814Z,85
2016-12-17T11:35:55.422Z,85
2016-12-17T11:37:09.966Z,85
2016-12-17T11:38:26.416Z,85
2016-12-17T11:39:41.205Z,90
2016-12-17T11:40:55.540Z,90
2016-12-17T11:42:10.359Z,90
2016-12-17T11:43:24.843Z,85
2016-12-17T11:44:42.299Z,80
2016-12-17T11:45:58.551Z,80
2016-12-17T11:47:28.762Z,80
2016-12-17T11:48:43.279Z,80
2016-12-17T11:49:57.734Z,80
2016-12-17T11:51:12.402Z,80
2016-12-17T11:52:26.587Z,75
2016-12-17T11:53:40.818Z,75
2016-12-17T11:54:55.276Z,70
2016-12-17T11:56:09.702Z,70
2016-12-17T11:57:24.128Z,65
2016-12-17T11:58:38.395Z,65
2016-12-17T11:59:52.604Z,65
2016-12-17T12:01:06.787Z,60
2016-12-17T12:02:21.249Z,65
2016-12-17T12:03:35.767Z,65
2016-12-17T12:04:50.385Z,70
2016-12-17T12:06:05.172Z,75
2016-12-17T12:07:19.526Z,75
2016-12-17T12:08:33.603Z,75
2016-12-17T12:09:47.977Z,75
2016-12-17T12:11:02.587Z,75
2016-12-17T12:12:16.731Z,75
2016-12-17T12:13:31.749Z,75
2016-12-17T12:14:45.868Z,75
2016-12-17T12:16:00.177Z,70
2016-12-17T12:17:15.122Z,65
2016-12-17T12:18:29.249Z,60
2016-12-17T12:19:43.659Z,60
2016-12-17T12:20:57.761Z,55
2016-12-17T12:22:12.146Z,55
2016-12-17T12:23:26.250Z,50
2016-12-17T12:24:40.690Z,55
2016-12-17T12:25:55.024Z,55
2016-12-17T12:27:09.564Z,55
2016-12-17T12:28:23.850Z,55
2016-12-17T12:29:38.212Z,55
2016-12-17T12:30:53.050Z,55
2016-12-17T12:32:07.146Z,50
2016-12-17T12:33:21.488Z,45
2016-12-17T12:34:36.013Z,45
2016-12-17T12:35:50.467Z,40
2016-12-17T12:37:04.563Z,40
2016-12-17T12:38:18.913Z,40
2016-12-17T12:39:33.145Z,35
2016-12-17T12:40:47.785Z,35
2016-12-17T12:42:03.310Z,35
2016-12-17T12:43:18.006Z,35
2016-12-17T12:44:32.067Z,40
2016-12-17T12:45:46.150Z,45
2016-12-17T12:47:15.527Z,50
2016-12-17T12:48:29.917Z,55
2016-12-17T12:49:44.277Z,60
2016-12-17T12:50:58.416Z,60
2016-12-17T12:52:12.900Z,65
2016-12-17T12:53:27.277Z,65
2016-12-17T12:54:41.423Z,60
2016-12-17T12:55:56.095Z,60
2016-12-17T12:57:11.209Z,60
2016-12-17T12:58:26.224Z,60
2016-12-17T12:59:41.827Z,55
2016-12-17T13:00:57.400Z,55
2016-12-17T13:02:13.823Z,55
2016-12-17T13:03:28.064Z,50
2016-12-17T13:04:42.381Z,50
2016-12-17T13:05:56.986Z,45
2016-12-17T13:07:13.113Z,45
2016-12-17T13:08:30.232Z,45
2016-12-17T13:09:44.393Z,40
2016-12-17T13:10:58.780Z,40
2016-12-17T13:12:13.175Z,40
2016-12-17T13:13:27.823Z,40
2016-12-17T13:14:42.658Z,40
2016-12-17T13:16:12.200Z,35
2016-12-17T13:17:26.952Z,35
2016-12-17T13:18:41.684Z,35
2016-12-17T13:19:56.321Z,30
2016-12-17T13:21:11.083Z,30
2016-12-17T13:22:27.197Z,30
2016-12-17T13:23:41.748Z,25
2016-12-17T13:24:55.988Z,25
2016-12-17T13:26:10.085Z,30
2016-12-17T13:27:39.640Z,30
2016-12-17T13:28:54.291Z,30
2016-12-17T13:30:10.260Z,35
2016-12-17T13:31:25.377Z,35
2016-12-17T13:32:39.507Z,40
2016-12-17T13:34:09.201Z,40
2016-12-17T13:35:23.288Z,40
2016-12-17T13:36:39.551Z,40
2016-12-17T13:37:54.724Z,40
2016-12-17T13:39:09.868Z,40
2016-12-17T13:40:25.487Z,40
2016-12-17T13:41:42.253Z,40
2016-12-17T13:42:56.797Z,35
2016-12-17T13:44:11.313Z,35
2016-12-17T13:45:25.540Z,35
2016-12-17T13:46:40.343Z,30
2016-12-17T13:47:54.565Z,30
2016-12-17T13:49:10.200Z,30
2016-12-17T13:50:25.133Z,30
2016-12-17T13:51:39.591Z,30
2016-12-17T13:52:55.876Z,30
2016-12-17T13:54:10.499Z,25
2016-12-17T13:55:24.675Z,25
2016-12-17T13:56:40.352Z,20
2016-12-17T13:57:56.506Z,20
2016-12-17T13:59:11.099Z,20
2016-12-17T14:00:27.825Z,20
2016-12-17T14:01:42.075Z,25
2016-12-17T14:02:56.256Z,25
2016-12-17T14:04:11.194Z,25
2016-12-17T14:05:26.718Z,25
2016-12-17T14:06:40.977Z,25
2016-12-17T14:07:55.707Z,25
2016-12-17T14:09:12.589Z,25
2016-12-17T14:10:30.810Z,25
2016-12-17T14:11:47.083Z,25
2016-12-17T14:13:04.414Z,20
2016-12-17T14:14:21.174Z,20
2016-12-17T14:15:36.702Z,20
2016-12-17T14:16:52.025Z,20
2016-12-17T14:18:09.800Z,20
2016-12-17T14:19:26.117Z,20
2016-12-17T14:20:43.774Z,20
2016-12-17T14:21:59.437Z,20
2016-12-17T14:23:15.224Z,20
2016-12-17T14:24:30.511Z,20
2016-12-17T14:25:45.731Z,20
2016-12-17T14:27:00.087Z,15
2016-12-17T14:28:14.663Z,15
2016-12-17T14:29:30.033Z,15
2016-12-17T14:30:44.616Z,15
2016-12-17T14:31:58.758Z,15
2016-12-17T14:33:12.834Z,15
2016-12-17T14:34:26.986Z,10
2016-12-17T14:35:41.299Z,10
2016-12-17T14:36:55.893Z,10
2016-12-17T14:38:09.986Z,10
2016-12-17T14:39:24.148Z,10
2016-12-17T14:40:38.241Z,5
2016-12-17T14:41:52.483Z,5
2016-12-17T14:43:07.401Z,5
2016-12-17T14:44:21.994Z,5
2016-12-17T14:45:36.521Z,5
2016-12-17T14:46:51.001Z,5
2016-12-17T14:48:05.602Z,5
2016-12-17T14:49:20.030Z,5
2016-12-17T14:50:35.091Z,5
2016-12-17T14:51:49.225Z,5
2016-12-17T14:53:03.387Z,5
2016-12-17T14:54:18.224Z,5
2016-12-17T14:55:32.675Z,5
2016-12-17T14:56:47.145Z,5
2016-12-17T14:58:01.526Z,5
2016-12-17T14:59:15.828Z,5
2016-12-17T15:00:30.191Z,5
2016-12-17T15:01:44.581Z,5
2016-12-17T15:02:58.948Z,5
2016-12-17T15:04:13.128Z,5
2016-12-17T15:05:27.479Z,5
2016-12-17T15:06:41.746Z,5
2016-12-17T15:07:56.559Z,5
2016-12-17T15:09:10.723Z,5
2016-12-17T15:10:25.068Z,5
2016-12-17T15:11:39.599Z,5
2016-12-17T15:12:53.852Z,0
2016-12-17T15:14:08.208Z,0
2016-12-17T15:15:22.644Z,0
2016-12-17T15:16:37.019Z,0
2016-12-17T15:17:52.654Z,0
2016-12-17T15:19:06.945Z,0
2016-12-17T15:20:21.263Z,0
2016-12-17T15:21:35.787Z,0
2016-12-17T15:22:50.202Z,0
2016-12-17T15:24:04.509Z,0
2016-12-17T15:25:18.784Z,0
2016-12-17T15:26:33.256Z,0
2016-12-17T15:27:47.375Z,0
2016-12-17T15:29:01.885Z,0
2016-12-17T15:30:16.270Z,0
2016-12-17T15:31:31.032Z,0
2016-12-17T15:32:45.785Z,0
2016-12-17T15:33:59.984Z,0
2016-12-17T15:35:14.085Z,0
2016-12-17T15:36:28.541Z,0
2016-12-17T15:37:45.474Z,0
2016-12-17T15:38:59.908Z,0
2016-12-17T15:40:13.959Z,0
2016-12-17T15:41:28.123Z,0
2016-12-17T15:42:42.553Z,0
2016-12-17T15:43:56.986Z,0
2016-12-17T15:45:11.372Z,0
2016-12-17T15:46:25.514Z,0
2016-12-17T15:47:39.652Z,0
2016-12-17T15:49:08.781Z,0
2016-12-17T15:50:23.188Z,0
2016-12-17T15:51:37.365Z,0
2016-12-17T15:52:51.833Z,0
2016-12-17T15:54:05.910Z,0
2016-12-17T15:55:20.391Z,0
2016-12-17T15:56:49.608Z,0
2016-12-17T15:58:03.936Z,0
2016-12-17T15:59:18.751Z,0
2016-12-17T16:00:33.152Z,0
2016-12-17T16:01:47.687Z,0
2016-12-17T16:03:02.033Z,0
2016-12-17T16:04:16.500Z,0
2016-12-17T16:05:31.217Z,0
2016-12-17T16:06:46.009Z,0
2016-12-17T16:08:00.772Z,0
2016-12-17T16:09:15.403Z,0
2016-12-17T16:10:44.196Z,0
2016-12-17T16:11:58.406Z,0
2016-12-17T16:13:12.948Z,0
2016-12-17T16:14:27.667Z,0
2016-12-17T16:15:42.421Z,0
2016-12-17T16:16:56.832Z,0
2016-12-17T16:18:11.062Z,0
2016-12-17T16:19:25.211Z,0
2016-12-17T16:20:40.099Z,0
2016-12-17T16:21:55.680Z,0
2016-12-17T16:23:10.282Z,0
2016-12-17T16:24:24.821Z,0
2016-12-17T16:25:49.363Z,0
2016-12-17T16:27:04.568Z,0
2016-12-17T16:28:19.096Z,0
2016-12-17T16:29:33.265Z,0
2016-12-17T16:30:47.992Z,0
2016-12-17T16:32:02.124Z,0
2016-12-17T16:33:46.031Z,0
2016-12-17T16:35:00.687Z,0
2016-12-17T16:36:15.179Z,0
2016-12-17T16:37:29.639Z,0
2016-12-17T16:38:43.792Z,0
2016-12-17T16:39:58.331Z,0
2016-12-17T16:41:13.125Z,0
2016-12-17T16:42:27.541Z,0
2016-12-17T16:43:41.970Z,0
2016-12-17T16:44:56.431Z,0
2016-12-17T16:46:10.622Z,0
2016-12-17T16:47:25.159Z,0
2016-12-17T16:48:39.955Z,0
2016-12-17T16:49:54.022Z,0
2016-12-17T16:51:09.015Z,0
2016-12-17T16:52:23.672Z,0
2016-12-17T16:53:38.540Z,0
2016-12-17T16:54:52.679Z,0
2016-12-17T16:56:09.379Z,0
2016-12-17T16:57:23.507Z,0
2016-12-17T16:58:37.906Z,0
2016-12-17T16:59:52.516Z,0
2016-12-17T17:01:07.042Z,0
2016-12-17T17:02:21.544Z,0
2016-12-17T17:03:35.625Z,0
2016-12-17T17:04:50.165Z,0
2016-12-17T17:06:04.514Z,0
2016-12-17T17:07:19.002Z,0
2016-12-17T17:08:33.384Z,0
2016-12-17T17:09:47.480Z,0
2016-12-17T17:11:01.637Z,0
2016-12-17T17:12:31.596Z,0
2016-12-17T17:14:01.207Z,0
2016-12-17T17:15:15.399Z,0
2016-12-17T17:16:29.573Z,0
2016-12-17T17:17:43.979Z,0
2016-12-17T17:18:58.341Z,0
2016-12-17T17:20:12.464Z,0
2016-12-17T17:21:26.923Z,0
2016-12-17T17:22:41.117Z,0
2016-12-17T17:23:56.066Z,0
2016-12-17T17:25:10.443Z,0
2016-12-17T17:26:24.552Z,0
2016-12-17T17:27:39.468Z,0
2016-12-17T17:28:54.104Z,0
2016-12-17T17:30:08.737Z,0
2016-12-17T17:31:23.255Z,0
2016-12-17T17:32:37.395Z,0
2016-12-17T17:33:51.962Z,0
2016-12-17T17:35:06.144Z,0
2016-12-17T17:36:20.818Z,0
2016-12-17T17:37:35.670Z,0
2016-12-17T17:38:50.491Z,0
2016-12-17T17:40:08.483Z,0
2016-12-17T17:41:27.930Z,0
2016-12-17T17:42:42.565Z,0
2016-12-17T17:43:57.575Z,0
2016-12-17T17:45:11.865Z,0
2016-12-17T17:46:27.172Z,0
2016-12-17T17:47:42.826Z,0
2016-12-17T17:49:01.231Z,0
2016-12-17T17:50:20.048Z,0
2016-12-17T17:51:40.812Z,0
2016-12-17T17:53:28.020Z,0
2016-12-17T17:54:48.806Z,0
2016-12-17T17:56:10.572Z,0
2016-12-17T17:57:28.326Z,0
2016-12-17T17:58:46.795Z,0
2016-12-17T18:00:05.611Z,0
2016-12-17T18:01:22.598Z,0
2016-12-17T18:02:40.359Z,0
2016-12-17T18:03:59.642Z,0
2016-12-17T18:05:17.615Z,0
2016-12-17T18:06:35.422Z,0
2016-12-17T18:07:53.415Z,0
2016-12-17T18:09:10.855Z,0
2016-12-17T18:10:29.028Z,0
2016-12-17T18:11:47.367Z,0
2016-12-17T18:13:04.001Z,0
2016-12-17T18:14:21.494Z,0
2016-12-17T18:15:42.763Z,0
2016-12-17T18:17:00.250Z,0
2016-12-17T18:18:17.524Z,0
2016-12-17T18:19:37.051Z,0
2016-12-17T18:20:54.327Z,0
2016-12-17T18:22:10.540Z,0
2016-12-17T18:23:27.640Z,0
2016-12-17T18:24:43.690Z,0
2016-12-17T18:25:59.828Z,0
2016-12-17T18:27:16.722Z,0
2016-12-17T18:28:33.679Z,0
2016-12-17T18:29:49.378Z,0
2016-12-17T18:31:05.268Z,0
2016-12-17T18:32:22.973Z,0
2016-12-17T18:33:38.680Z,0
2016-12-17T18:34:53.966Z,0
2016-12-17T18:36:09.091Z,0
2016-12-17T18:37:25.650Z,0
2016-12-17T18:38:41.805Z,0
2016-12-17T18:40:14.281Z,0
2016-12-17T18:41:29.351Z,0
2016-12-17T18:42:45.663Z,0
2016-12-17T18:44:00.160Z,0
2016-12-17T18:45:14.533Z,0
2016-12-17T18:46:29.353Z,0
2016-12-17T18:47:44.075Z,0
2016-12-17T18:49:13.853Z,0
2016-12-17T18:50:28.213Z,0
2016-12-17T18:51:42.841Z,0
2016-12-17T18:52:57.246Z,0
2016-12-17T18:54:11.898Z,0
2016-12-17T18:55:26.750Z,0
2016-12-17T18:56:41.061Z,0
2016-12-17T18:57:55.659Z,0
2016-12-17T18:59:10.487Z,0
2016-12-17T19:00:25.413Z,0
2016-12-17T19:01:39.985Z,0
2016-12-17T19:02:56.268Z,0
2016-12-17T19:04:11.475Z,0
2016-12-17T19:05:26.525Z,0
2016-12-17T19:06:40.937Z,0
2016-12-17T19:07:55.302Z,0
2016-12-17T19:09:10.712Z,0
2016-12-17T19:10:25.855Z,0
2016-12-17T19:11:40.711Z,0
2016-12-17T19:12:55.326Z,0
2016-12-17T19:14:10.063Z,0
2016-12-17T19:15:24.475Z,0
2016-12-17T19:16:39.158Z,0
2016-12-17T19:17:53.738Z,0
2016-12-17T19:19:08.615Z,0
2016-12-17T19:20:23.016Z,0
2016-12-17T19:21:39.169Z,0
2016-12-17T19:22:53.800Z,0
2016-12-17T19:24:08.001Z,0
2016-12-17T19:25:22.583Z,0
2016-12-17T19:26:37.353Z,0
2016-12-17T19:27:51.904Z,0
2016-12-17T19:29:07.446Z,0
2016-12-17T19:30:22.782Z,0
2016-12-17T19:31:37.206Z,0
2016-12-17T19:32:51.399Z,0
2016-12-17T19:34:07.995Z,0
2016-12-17T19:35:22.704Z,0
2016-12-17T19:36:37.172Z,0
2016-12-17T19:37:52.159Z,0
2016-12-17T19:39:06.664Z,0
2016-12-17T19:40:21.159Z,0
2016-12-17T19:41:35.960Z,0
2016-12-17T19:42:50.207Z,0
2016-12-17T19:44:04.596Z,0
2016-12-17T19:45:19.195Z,0
2016-12-17T19:46:34.190Z,0
2016-12-17T19:47:48.967Z,0
2016-12-17T19:49:03.844Z,0
2016-12-17T19:50:18.181Z,0
2016-12-17T19:51:32.936Z,0
2016-12-17T19:52:47.878Z,0
2016-12-17T19:54:02.438Z,0
2016-12-17T19:55:16.973Z,0
2016-12-17T19:56:31.477Z,0
2016-12-17T19:57:46.130Z,0
2016-12-17T19:59:00.773Z,0
2016-12-17T20:00:29.791Z,0
2016-12-17T20:01:59.413Z,0
2016-12-17T20:03:28.589Z,0
2016-12-17T20:04:43.405Z,0
2016-12-17T20:05:58.224Z,0
2016-12-17T20:07:12.692Z,0
2016-12-17T20:08:28.108Z,0
2016-12-17T20:09:42.373Z,0
2016-12-17T20:10:57.263Z,0
2016-12-17T20:12:12.276Z,0
2016-12-17T20:13:27.200Z,0
2016-12-17T20:14:42.295Z,0
2016-12-17T20:15:57.276Z,0
2016-12-17T20:17:14.411Z,0
2016-12-17T20:18:29.883Z,0
2016-12-17T20:19:44.437Z,0
2016-12-17T20:20:59.944Z,0
2016-12-17T20:22:15.163Z,0
2016-12-17T20:23:30.593Z,0
2016-12-17T20:24:46.984Z,0
2016-12-17T20:26:01.419Z,0
2016-12-17T20:27:16.625Z,0
2016-12-17T20:28:31.899Z,0
2016-12-17T20:29:47.859Z,0
2016-12-17T20:31:03.116Z,0